createdAt,value
2023-04-18T00:02:58.819Z,4.90
2023-04-18T00:06:13.015Z,2.85
2023-04-18T00:09:30.023Z,4.60
2023-04-18T00:12:51.683Z,3.53
2023-04-18T00:20:21.208Z,4.93
2023-04-18T00:24:31.043Z,4.05
2023-04-18T00:28:24.560Z,5.63
2023-04-18T00:35:35.577Z,3.00
2023-04-18T00:39:20.688Z,3.25
2023-04-18T00:42:43.975Z,3.95
2023-04-18T00:46:01.742Z,4.07
2023-04-18T00:49:32.158Z,3.53
2023-04-18T00:52:45.877Z,3.83
2023-04-18T00:55:54.279Z,4.22
2023-04-18T00:59:02.846Z,4.10
2023-04-18T01:02:11.966Z,4.20
2023-04-18T01:05:15.293Z,4.05
2023-04-18T01:08:22.298Z,3.40
2023-04-18T01:11:26.658Z,4.80
2023-04-18T01:14:29.422Z,4.43
2023-04-18T01:17:35.181Z,3.33
2023-04-18T01:20:44.176Z,3.83
2023-04-18T01:23:53.432Z,4.82
2023-04-18T01:31:00.719Z,4.97
2023-04-18T01:38:01.394Z,3.95
2023-04-18T01:41:19.508Z,5.88
2023-04-18T01:44:41.379Z,4.57
2023-04-18T01:48:17.641Z,5.07
2023-04-18T01:51:34.928Z,4.70
2023-04-18T01:54:42.200Z,6.30
2023-04-18T01:57:51.916Z,5.22
2023-04-18T02:01:07.597Z,4.90
2023-04-18T02:04:17.136Z,5.45
2023-04-18T02:07:28.366Z,6.13
2023-04-18T02:10:32.358Z,6.35
2023-04-18T02:13:40.985Z,5.97
2023-04-18T02:16:46.796Z,7.28
2023-04-18T02:19:52.852Z,6.05
2023-04-18T02:22:56.232Z,4.80
2023-04-18T02:26:08.611Z,5.50
2023-04-18T02:29:14.672Z,5.70
2023-04-18T02:32:21.544Z,6.03
2023-04-18T02:35:29.822Z,6.53
2023-04-18T02:38:37.064Z,4.97
2023-04-18T02:41:44.136Z,5.60
2023-04-18T02:44:49.924Z,5.13
2023-04-18T02:47:57.793Z,4.93
2023-04-18T02:51:18.041Z,7.00
2023-04-18T02:54:27.767Z,6.77
2023-04-18T02:57:35.239Z,5.78
2023-04-18T03:00:47.062Z,6.32
2023-04-18T03:03:51.423Z,8.00
2023-04-18T03:06:56.937Z,6.65
2023-04-18T03:10:11.125Z,6.43
2023-04-18T03:13:24.677Z,6.53
2023-04-18T03:16:36.671Z,7.93
2023-04-18T03:19:47.505Z,6.78
2023-04-18T03:22:58.206Z,6.82
2023-04-18T03:26:13.532Z,9.87
2023-04-18T03:33:00.113Z,7.38
2023-04-18T03:36:13.089Z,9.13
2023-04-18T03:39:16.784Z,8.50
2023-04-18T03:42:21.075Z,7.87
2023-04-18T03:45:34.533Z,9.23
2023-04-18T03:48:50.347Z,9.95
2023-04-18T03:52:03.301Z,6.63
2023-04-18T03:55:12.567Z,8.57
2023-04-18T03:58:23.878Z,8.23
2023-04-18T04:01:29.809Z,6.72
2023-04-18T04:04:36.668Z,8.75
2023-04-18T04:07:40.023Z,8.25
2023-04-18T04:10:45.241Z,8.65
2023-04-18T04:13:51.609Z,8.13
2023-04-18T04:23:27.730Z,8.77
2023-04-18T04:26:31.107Z,8.90
2023-04-18T04:29:38.931Z,9.07
2023-04-18T04:32:48.343Z,9.07
2023-04-18T04:35:51.184Z,10.18
2023-04-18T04:38:56.297Z,8.43
2023-04-18T04:42:04.763Z,8.40
2023-04-18T04:45:10.058Z,9.10
2023-04-18T04:48:13.010Z,9.65
2023-04-18T04:51:24.190Z,8.38
2023-04-18T04:54:27.225Z,8.68
2023-04-18T04:57:33.983Z,8.75
2023-04-18T05:00:39.509Z,9.60
2023-04-18T05:03:43.671Z,10.40
2023-04-18T05:06:47.719Z,8.70
2023-04-18T05:09:59.697Z,8.98
2023-04-18T05:13:05.444Z,8.73
2023-04-18T05:16:20.805Z,9.90
2023-04-18T05:19:24.562Z,9.45
2023-04-18T05:22:32.108Z,9.13
2023-04-18T05:25:38.531Z,10.10
2023-04-18T05:28:45.360Z,10.65
2023-04-18T05:35:17.157Z,12.15
2023-04-18T05:38:35.946Z,9.45
2023-04-18T05:41:46.497Z,10.10
2023-04-18T05:45:16.125Z,9.13
2023-04-18T05:48:49.133Z,10.70
2023-04-18T05:57:23.568Z,9.57
2023-04-18T07:14:20.247Z,5.43
2023-04-18T07:17:40.739Z,4.67
2023-04-18T07:21:27.387Z,6.40
2023-04-18T07:24:34.059Z,5.30
2023-04-18T07:27:37.440Z,4.47
2023-04-18T07:30:40.524Z,6.10
2023-04-18T07:33:43.667Z,4.97
2023-04-18T07:36:53.383Z,5.15
2023-04-18T07:39:55.958Z,5.18
2023-04-18T07:43:01.425Z,4.90
2023-04-18T07:46:16.419Z,6.93
2023-04-18T07:49:19.456Z,4.30
2023-04-18T07:52:24.890Z,4.78
2023-04-18T07:55:27.672Z,5.03
2023-04-18T07:58:32.833Z,4.43
2023-04-18T08:01:35.524Z,3.95
2023-04-18T08:04:38.054Z,3.57
2023-04-18T08:07:45.722Z,3.50
2023-04-18T08:10:58.596Z,8.43
2023-04-18T08:14:10.829Z,4.15
2023-04-18T08:22:01.200Z,3.13
2023-04-18T08:25:05.414Z,3.70
2023-04-18T08:28:15.472Z,3.38
2023-04-18T08:31:20.471Z,4.75
2023-04-18T08:34:29.589Z,3.10
2023-04-18T08:37:36.159Z,4.37
2023-04-18T08:40:50.376Z,4.25
2023-04-18T08:44:29.862Z,4.38
2023-04-18T08:47:46.144Z,4.95
2023-04-18T08:50:53.187Z,5.47
2023-04-18T08:55:24.989Z,4.77
2023-04-18T09:03:02.632Z,1.92
2023-04-18T09:12:37.671Z,1.88
2023-04-18T09:19:41.536Z,2.15
2023-04-18T09:23:07.270Z,2.42
2023-04-18T09:29:46.291Z,2.95
2023-04-18T09:32:59.418Z,2.70
2023-04-18T09:36:23.741Z,1.63
2023-04-18T09:53:35.951Z,2.43
2023-04-18T09:57:11.044Z,3.17
2023-04-18T10:00:30.389Z,1.70
2023-04-18T10:12:34.080Z,3.13
2023-04-18T10:16:21.227Z,4.55
2023-04-18T10:32:19.761Z,5.23
2023-04-18T10:38:58.285Z,1.42
2023-04-18T10:42:33.203Z,1.77
2023-04-18T10:46:42.418Z,4.30
2023-04-18T10:50:08.170Z,2.07
2023-04-18T10:53:46.087Z,2.35
2023-04-18T10:57:34.402Z,3.50
2023-04-18T11:00:46.942Z,2.90
2023-04-18T11:03:58.888Z,3.30
2023-04-18T11:07:18.356Z,3.07
2023-04-18T11:10:39.880Z,3.10
2023-04-18T11:15:17.796Z,2.60
2023-04-18T11:19:04.838Z,5.03
2023-04-18T11:22:08.866Z,2.15
2023-04-18T11:25:15.329Z,5.07
2023-04-18T11:28:23.225Z,5.93
2023-04-18T11:31:29.012Z,2.15
2023-04-18T11:37:57.968Z,3.92
2023-04-18T11:41:39.060Z,3.83
2023-04-18T11:44:50.697Z,1.67
2023-04-18T11:48:11.656Z,2.40
2023-04-18T11:51:52.960Z,1.55
2023-04-18T11:55:01.772Z,1.77
2023-04-18T11:58:41.797Z,2.37
2023-04-18T12:02:14.413Z,2.17
2023-04-18T12:05:32.833Z,3.55
2023-04-18T12:09:21.399Z,2.33
2023-04-18T12:12:35.265Z,3.75
2023-04-18T12:15:44.986Z,4.30
2023-04-18T12:32:13.913Z,2.85
2023-04-18T12:35:46.417Z,4.40
2023-04-18T12:39:13.684Z,3.97
2023-04-18T12:42:34.686Z,2.35
2023-04-18T12:45:37.875Z,5.95
2023-04-18T12:48:53.546Z,3.17
2023-04-18T12:52:05.693Z,2.47
2023-04-18T12:55:40.192Z,4.35
2023-04-18T13:04:38.485Z,2.45
2023-04-18T13:07:50.301Z,2.28
2023-04-18T13:15:03.046Z,1.52
2023-04-18T13:18:12.613Z,4.57
2023-04-18T13:21:34.755Z,1.23
2023-04-18T13:25:36.351Z,1.40
2023-04-18T13:33:07.457Z,2.25
2023-04-18T13:36:37.903Z,4.00
2023-04-18T13:39:53.271Z,4.45
2023-04-18T13:43:30.037Z,1.70
2023-04-18T13:46:58.596Z,2.83
2023-04-18T13:50:22.191Z,2.88
2023-04-18T13:53:57.515Z,1.50
2023-04-18T13:57:17.467Z,3.80
2023-04-18T14:00:24.747Z,1.30
2023-04-18T14:03:55.110Z,3.93
2023-04-18T14:07:16.666Z,1.65
2023-04-18T14:10:39.751Z,3.97
2023-04-18T14:14:10.926Z,3.13
2023-04-18T14:17:34.360Z,1.85
2023-04-18T14:21:28.301Z,3.60
2023-04-18T14:33:00.748Z,1.98
2023-04-18T14:36:03.286Z,3.67
2023-04-18T14:40:06.389Z,3.13
2023-04-18T14:43:15.183Z,4.50
2023-04-18T14:47:38.409Z,4.82
2023-04-18T14:51:17.685Z,3.70
2023-04-18T14:59:55.795Z,4.40
2023-04-18T15:04:23.311Z,1.98
2023-04-18T15:07:15.365Z,3.15
2023-04-18T15:10:23.145Z,3.05
2023-04-18T15:13:58.091Z,2.05
2023-04-18T15:17:03.227Z,3.23
2023-04-18T15:20:16.250Z,2.67
2023-04-18T15:23:45.897Z,1.40
2023-04-18T15:30:53.047Z,2.65
2023-04-18T15:34:10.533Z,3.53
2023-04-18T15:37:18.390Z,2.67
2023-04-18T15:40:28.175Z,4.00
2023-04-18T15:43:35.351Z,4.47
2023-04-18T15:46:49.963Z,1.65
2023-04-18T15:50:28.007Z,5.33
2023-04-18T15:53:36.979Z,4.43
2023-04-18T15:56:44.827Z,3.55
2023-04-18T16:01:29.898Z,2.97
2023-04-18T16:03:42.679Z,5.35
2023-04-18T16:06:44.804Z,1.90
2023-04-18T16:09:52.227Z,1.73
2023-04-18T16:13:25.069Z,2.10
2023-04-18T16:16:30.042Z,4.00
2023-04-18T16:19:33.917Z,3.88
2023-04-18T16:22:51.469Z,3.17
2023-04-18T16:26:24.729Z,3.17
2023-04-18T16:29:45.841Z,4.00
2023-04-18T16:33:14.856Z,3.05
2023-04-18T16:36:19.956Z,6.63
2023-04-18T16:39:59.773Z,3.07
2023-04-18T16:43:24.050Z,4.97
2023-04-18T16:46:39.751Z,2.28
2023-04-18T16:49:43.663Z,3.30
2023-04-18T16:52:46.504Z,5.22
2023-04-18T16:55:52.181Z,3.60
2023-04-18T16:58:58.832Z,4.05
2023-04-18T17:02:41.373Z,3.83
2023-04-18T17:06:01.699Z,5.25
2023-04-18T17:09:30.362Z,3.78
2023-04-18T17:12:39.362Z,2.57
2023-04-18T17:16:02.980Z,2.42
2023-04-18T17:19:28.354Z,3.35
2023-04-18T17:26:04.800Z,3.28
2023-04-18T17:29:16.372Z,5.23
2023-04-18T17:32:32.975Z,7.00
2023-04-18T17:35:37.952Z,4.82
2023-04-18T17:38:51.122Z,2.80
2023-04-18T17:42:09.630Z,2.85
2023-04-18T17:45:24.086Z,4.37
2023-04-18T17:48:29.135Z,4.72
2023-04-18T17:51:50.289Z,3.10
2023-04-18T17:54:57.962Z,3.30
2023-04-18T17:58:13.754Z,7.18
2023-04-18T18:01:39.422Z,6.93
2023-04-18T18:04:49.252Z,5.32
2023-04-18T18:08:01.995Z,4.45
2023-04-18T18:11:07.419Z,2.65
2023-04-18T18:14:17.187Z,4.47
2023-04-18T18:17:22.940Z,4.23
2023-04-18T18:20:32.985Z,6.20
2023-04-18T18:23:39.324Z,5.47
2023-04-18T18:26:45.182Z,9.30
2023-04-18T18:29:54.191Z,4.75
2023-04-18T18:33:06.922Z,6.53
2023-04-18T18:36:12.088Z,6.97
2023-04-18T18:39:17.713Z,7.03
2023-04-18T18:42:21.365Z,6.75
2023-04-18T18:45:23.872Z,8.93
2023-04-18T18:48:39.477Z,7.30
2023-04-18T18:51:43.898Z,7.38
2023-04-18T18:54:47.594Z,7.90
2023-04-18T18:57:50.764Z,6.13
2023-04-18T19:00:56.808Z,6.22
2023-04-18T19:04:00.553Z,5.77
2023-04-18T19:07:06.143Z,4.85
2023-04-18T19:10:12.293Z,8.40
2023-04-18T19:13:24.409Z,6.50
2023-04-18T19:16:27.468Z,6.70
2023-04-18T19:19:37.225Z,4.63
2023-04-18T19:22:48.987Z,5.95
2023-04-18T19:26:04.942Z,6.47
2023-04-18T19:29:14.469Z,5.72
2023-04-18T19:32:21.836Z,8.05
2023-04-18T19:35:27.703Z,4.67
2023-04-18T19:38:39.384Z,6.47
2023-04-18T19:41:48.628Z,8.20
2023-04-18T19:45:08.082Z,10.63
2023-04-18T19:48:19.949Z,8.48
2023-04-18T19:51:35.345Z,7.77
2023-04-18T19:54:48.320Z,8.20
2023-04-18T19:57:57.189Z,5.78
2023-04-18T20:00:59.628Z,6.03
2023-04-18T20:04:02.991Z,4.15
2023-04-18T20:07:05.668Z,5.00
2023-04-18T20:10:09.229Z,4.88
2023-04-18T20:13:11.852Z,6.72
2023-04-18T20:16:17.361Z,5.63
2023-04-18T20:19:19.745Z,3.75
2023-04-18T20:22:26.957Z,4.17
2023-04-18T20:25:31.410Z,3.85
2023-04-18T20:28:38.007Z,4.18
2023-04-18T20:31:44.947Z,2.78
2023-04-18T20:34:52.136Z,4.47
2023-04-18T20:37:57.550Z,4.63
2023-04-18T20:41:10.994Z,7.68
2023-04-18T20:44:22.307Z,3.38
2023-04-18T20:47:29.674Z,3.63
2023-04-18T20:50:37.609Z,3.08
2023-04-18T20:53:48.960Z,2.73
2023-04-18T20:56:53.091Z,3.40
2023-04-18T21:00:10.865Z,7.50
2023-04-18T21:03:17.512Z,3.78
2023-04-18T21:06:26.442Z,4.10
2023-04-18T21:09:28.706Z,4.83
2023-04-18T21:12:35.038Z,5.38
2023-04-18T21:15:42.095Z,4.55
2023-04-18T21:18:46.692Z,4.57
2023-04-18T21:21:50.132Z,5.28
2023-04-18T21:24:53.857Z,4.57
2023-04-18T21:28:04.364Z,3.40
2023-04-18T21:31:15.854Z,4.65
2023-04-18T21:34:24.417Z,7.68
2023-04-18T21:37:29.107Z,5.15
2023-04-18T21:40:43.645Z,4.13
2023-04-18T21:43:46.123Z,5.25
2023-04-18T21:46:51.980Z,4.55
2023-04-18T21:49:56.536Z,6.03
2023-04-18T21:53:03.036Z,4.90
2023-04-18T21:56:08.561Z,5.13
2023-04-18T21:59:11.676Z,7.78
2023-04-18T22:02:17.454Z,5.25
2023-04-18T22:05:21.560Z,3.33
2023-04-18T22:08:26.534Z,5.85
2023-04-18T22:11:29.742Z,4.47
2023-04-18T22:14:34.103Z,4.07
2023-04-18T22:17:38.068Z,3.95
2023-04-18T22:20:44.803Z,4.25
2023-04-18T22:23:50.736Z,3.22
2023-04-18T22:26:54.878Z,5.23
2023-04-18T22:29:59.914Z,5.63
2023-04-18T22:33:02.605Z,3.88
2023-04-18T22:36:06.906Z,5.57
2023-04-18T22:39:34.171Z,3.92
2023-04-18T22:42:38.050Z,6.77
2023-04-18T22:45:43.624Z,4.38
2023-04-18T22:48:54.892Z,6.63
2023-04-18T22:52:00.951Z,6.10
2023-04-18T22:55:08.779Z,4.45
2023-04-18T22:58:11.765Z,3.27
2023-04-18T23:01:14.293Z,5.28
2023-04-18T23:04:23.035Z,4.82
2023-04-18T23:07:32.937Z,5.13
2023-04-18T23:10:41.594Z,4.20
2023-04-18T23:13:56.126Z,4.30
2023-04-18T23:17:01.039Z,5.68
2023-04-18T23:20:07.557Z,6.95
2023-04-18T23:23:18.872Z,4.82
2023-04-18T23:26:24.179Z,5.07
2023-04-18T23:29:31.871Z,3.67
2023-04-18T23:32:48.467Z,3.08
2023-04-18T23:35:58.292Z,5.82
2023-04-18T23:39:04.324Z,3.90
2023-04-18T23:42:13.506Z,4.25
2023-04-18T23:45:20.602Z,4.77
2023-04-18T23:48:28.245Z,5.03
2023-04-18T23:51:37.573Z,3.80
2023-04-18T23:54:42.448Z,5.85
2023-04-18T23:57:49.102Z,4.70
